sensor_id;sensor_type;location;lat;lon;timestamp;pressure;altitude;pressure_sealevel;temperature;humidity
25944;BME280;13742;49.306;8.636;2023-09-08T00:00:31;100599.64;;;22.71;54.83
25944;BME280;13742;49.306;8.636;2023-09-08T00:01:31;100596.88;;;22.71;54.94
25944;BME280;13742;49.306;8.636;2023-09-08T00:02:31;100598.90;;;22.70;54.77
25944;BME280;13742;49.306;8.636;2023-09-08T00:03:31;100599.81;;;22.70;55.03
25944;BME280;13742;49.306;8.636;2023-09-08T00:04:33;100598.63;;;22.68;54.83
25944;BME280;13742;49.306;8.636;2023-09-08T00:05:31;100597.89;;;22.66;54.89
25944;BME280;13742;49.306;8.636;2023-09-08T00:06:31;100600.18;;;22.64;54.79
25944;BME280;13742;49.306;8.636;2023-09-08T00:07:31;100593.84;;;22.61;55.17
25944;BME280;13742;49.306;8.636;2023-09-08T00:08:31;100593.28;;;22.59;55.10
25944;BME280;13742;49.306;8.636;2023-09-08T00:09:31;100592.57;;;22.58;55.01
25944;BME280;13742;49.306;8.636;2023-09-08T00:10:31;100593.41;;;22.57;55.08
25944;BME280;13742;49.306;8.636;2023-09-08T00:11:31;100593.28;;;22.56;55.22
25944;BME280;13742;49.306;8.636;2023-09-08T00:12:31;100591.69;;;22.56;54.88
25944;BME280;13742;49.306;8.636;2023-09-08T00:13:31;100588.80;;;22.56;55.02
25944;BME280;13742;49.306;8.636;2023-09-08T00:14:31;100590.89;;;22.55;55.22
25944;BME280;13742;49.306;8.636;2023-09-08T00:15:34;100589.23;;;22.53;55.09
25944;BME280;13742;49.306;8.636;2023-09-08T00:16:31;100588.36;;;22.52;55.11
25944;BME280;13742;49.306;8.636;2023-09-08T00:17:31;100584.72;;;22.50;55.35
25944;BME280;13742;49.306;8.636;2023-09-08T00:18:32;100585.66;;;22.48;55.44
25944;BME280;13742;49.306;8.636;2023-09-08T00:19:31;100587.75;;;22.46;55.37
25944;BME280;13742;49.306;8.636;2023-09-08T00:20:31;100585.05;;;22.44;55.22
25944;BME280;13742;49.306;8.636;2023-09-08T00:21:31;100584.89;;;22.44;55.15
25944;BME280;13742;49.306;8.636;2023-09-08T00:22:31;100582.02;;;22.44;55.58
25944;BME280;13742;49.306;8.636;2023-09-08T00:23:31;100585.36;;;22.38;55.65
25944;BME280;13742;49.306;8.636;2023-09-08T00:24:31;100586.94;;;22.37;55.40
25944;BME280;13742;49.306;8.636;2023-09-08T00:25:31;100585.36;;;22.38;55.55
25944;BME280;13742;49.306;8.636;2023-09-08T00:26:32;100587.48;;;22.38;55.46
25944;BME280;13742;49.306;8.636;2023-09-08T00:27:31;100587.94;;;22.37;55.31
25944;BME280;13742;49.306;8.636;2023-09-08T00:28:31;100586.19;;;22.38;55.09
25944;BME280;13742;49.306;8.636;2023-09-08T00:29:31;100587.34;;;22.37;55.22
25944;BME280;13742;49.306;8.636;2023-09-08T00:30:32;100589.02;;;22.37;55.81
25944;BME280;13742;49.306;8.636;2023-09-08T00:31:31;100587.23;;;22.34;56.19
25944;BME280;13742;49.306;8.636;2023-09-08T00:32:31;100588.78;;;22.35;55.46
25944;BME280;13742;49.306;8.636;2023-09-08T00:33:31;100588.34;;;22.33;55.63
25944;BME280;13742;49.306;8.636;2023-09-08T00:34:31;100586.73;;;22.32;55.52
25944;BME280;13742;49.306;8.636;2023-09-08T00:35:31;100589.14;;;22.29;55.52
25944;BME280;13742;49.306;8.636;2023-09-08T00:36:31;100586.62;;;22.26;55.60
25944;BME280;13742;49.306;8.636;2023-09-08T00:37:31;100589.07;;;22.25;55.88
25944;BME280;13742;49.306;8.636;2023-09-08T00:38:31;100587.36;;;22.24;55.85
25944;BME280;13742;49.306;8.636;2023-09-08T00:39:31;100587.55;;;22.22;55.74
25944;BME280;13742;49.306;8.636;2023-09-08T00:40:32;100585.13;;;22.19;56.01
25944;BME280;13742;49.306;8.636;2023-09-08T00:41:31;100583.61;;;22.19;55.60
25944;BME280;13742;49.306;8.636;2023-09-08T00:42:31;100585.53;;;22.20;55.71
25944;BME280;13742;49.306;8.636;2023-09-08T00:43:31;100582.30;;;22.18;55.77
25944;BME280;13742;49.306;8.636;2023-09-08T00:44:31;100578.86;;;22.17;55.87
25944;BME280;13742;49.306;8.636;2023-09-08T00:45:31;100578.76;;;22.16;55.82
25944;BME280;13742;49.306;8.636;2023-09-08T00:46:31;100577.82;;;22.16;55.91
25944;BME280;13742;49.306;8.636;2023-09-08T00:47:31;100577.05;;;22.15;56.02
25944;BME280;13742;49.306;8.636;2023-09-08T00:48:31;100577.61;;;22.15;56.02
25944;BME280;13742;49.306;8.636;2023-09-08T00:49:31;100576.00;;;22.14;55.70
25944;BME280;13742;49.306;8.636;2023-09-08T00:50:31;100577.91;;;22.13;56.14
25944;BME280;13742;49.306;8.636;2023-09-08T00:51:31;100577.41;;;22.13;56.05
25944;BME280;13742;49.306;8.636;2023-09-08T00:52:33;100575.19;;;22.12;56.16
25944;BME280;13742;49.306;8.636;2023-09-08T00:53:31;100579.19;;;22.11;56.00
25944;BME280;13742;49.306;8.636;2023-09-08T00:54:31;100577.23;;;22.10;56.22
25944;BME280;13742;49.306;8.636;2023-09-08T00:55:31;100576.63;;;22.10;56.11
25944;BME280;13742;49.306;8.636;2023-09-08T00:56:31;100577.09;;;22.09;56.18
25944;BME280;13742;49.306;8.636;2023-09-08T00:57:31;100575.72;;;22.08;56.11
25944;BME280;13742;49.306;8.636;2023-09-08T00:58:31;100578.27;;;22.06;56.27
25944;BME280;13742;49.306;8.636;2023-09-08T00:59:31;100578.13;;;22.05;56.36
25944;BME280;13742;49.306;8.636;2023-09-08T01:00:32;100581.90;;;22.05;56.10
25944;BME280;13742;49.306;8.636;2023-09-08T01:01:31;100579.47;;;22.00;56.18
25944;BME280;13742;49.306;8.636;2023-09-08T01:02:32;100579.13;;;21.97;56.51
25944;BME280;13742;49.306;8.636;2023-09-08T01:03:32;100577.58;;;21.96;56.19
25944;BME280;13742;49.306;8.636;2023-09-08T01:04:33;100579.46;;;21.97;56.26
25944;BME280;13742;49.306;8.636;2023-09-08T01:05:31;100580.37;;;21.97;56.29
25944;BME280;13742;49.306;8.636;2023-09-08T01:06:32;100581.03;;;21.97;56.15
25944;BME280;13742;49.306;8.636;2023-09-08T01:07:31;100577.41;;;21.96;56.32
25944;BME280;13742;49.306;8.636;2023-09-08T01:08:31;100582.04;;;21.95;56.48
25944;BME280;13742;49.306;8.636;2023-09-08T01:09:31;100579.98;;;21.94;56.45
25944;BME280;13742;49.306;8.636;2023-09-08T01:10:31;100580.55;;;21.91;56.31
25944;BME280;13742;49.306;8.636;2023-09-08T01:11:31;100580.34;;;21.89;56.40
25944;BME280;13742;49.306;8.636;2023-09-08T01:12:32;100581.59;;;21.88;56.32
25944;BME280;13742;49.306;8.636;2023-09-08T01:13:31;100582.39;;;21.87;56.55
25944;BME280;13742;49.306;8.636;2023-09-08T01:14:31;100581.52;;;21.86;56.48
25944;BME280;13742;49.306;8.636;2023-09-08T01:15:31;100580.80;;;21.85;56.80
25944;BME280;13742;49.306;8.636;2023-09-08T01:16:31;100584.57;;;21.85;56.46
25944;BME280;13742;49.306;8.636;2023-09-08T01:17:31;100583.31;;;21.80;56.93
25944;BME280;13742;49.306;8.636;2023-09-08T01:18:31;100587.89;;;21.81;56.66
25944;BME280;13742;49.306;8.636;2023-09-08T01:19:31;100586.00;;;21.80;56.47
25944;BME280;13742;49.306;8.636;2023-09-08T01:23:36;100587.09;;;21.76;56.74
25944;BME280;13742;49.306;8.636;2023-09-08T01:25:31;100585.30;;;21.73;57.31
25944;BME280;13742;49.306;8.636;2023-09-08T01:26:34;100587.55;;;21.72;57.14
25944;BME280;13742;49.306;8.636;2023-09-08T01:27:35;100586.84;;;21.71;57.18
25944;BME280;13742;49.306;8.636;2023-09-08T01:28:31;100587.34;;;21.71;56.96
25944;BME280;13742;49.306;8.636;2023-09-08T01:29:31;100590.00;;;21.70;57.03
25944;BME280;13742;49.306;8.636;2023-09-08T01:30:34;100591.64;;;21.69;57.24
25944;BME280;13742;49.306;8.636;2023-09-08T01:31:32;100591.88;;;21.68;56.94
25944;BME280;13742;49.306;8.636;2023-09-08T01:32:31;100590.59;;;21.68;56.86
25944;BME280;13742;49.306;8.636;2023-09-08T01:33:31;100590.93;;;21.68;56.98
25944;BME280;13742;49.306;8.636;2023-09-08T01:34:31;100590.72;;;21.67;56.93
25944;BME280;13742;49.306;8.636;2023-09-08T01:35:31;100588.33;;;21.65;57.12
25944;BME280;13742;49.306;8.636;2023-09-08T01:36:32;100589.07;;;21.65;57.02
25944;BME280;13742;49.306;8.636;2023-09-08T01:37:31;100586.28;;;21.64;57.20
25944;BME280;13742;49.306;8.636;2023-09-08T01:38:31;100590.44;;;21.64;56.97
25944;BME280;13742;49.306;8.636;2023-09-08T01:39:31;100592.02;;;21.64;57.06
25944;BME280;13742;49.306;8.636;2023-09-08T01:40:31;100587.11;;;21.63;57.51
25944;BME280;13742;49.306;8.636;2023-09-08T01:41:32;100585.73;;;21.62;57.39
25944;BME280;13742;49.306;8.636;2023-09-08T01:42:31;100583.81;;;21.61;57.36
25944;BME280;13742;49.306;8.636;2023-09-08T01:43:31;100585.63;;;21.61;57.44
25944;BME280;13742;49.306;8.636;2023-09-08T01:44:31;100583.91;;;21.59;57.39
25944;BME280;13742;49.306;8.636;2023-09-08T01:45:31;100582.96;;;21.59;57.32
25944;BME280;13742;49.306;8.636;2023-09-08T01:46:31;100583.46;;;21.58;57.28
25944;BME280;13742;49.306;8.636;2023-09-08T01:47:31;100583.55;;;21.56;57.64
25944;BME280;13742;49.306;8.636;2023-09-08T01:48:31;100584.83;;;21.56;57.55
25944;BME280;13742;49.306;8.636;2023-09-08T01:49:31;100582.64;;;21.56;57.43
25944;BME280;13742;49.306;8.636;2023-09-08T01:50:31;100585.23;;;21.56;57.68
25944;BME280;13742;49.306;8.636;2023-09-08T01:51:31;100584.23;;;21.56;57.33
25944;BME280;13742;49.306;8.636;2023-09-08T01:52:31;100582.00;;;21.55;57.36
25944;BME280;13742;49.306;8.636;2023-09-08T01:53:31;100583.05;;;21.56;57.52
25944;BME280;13742;49.306;8.636;2023-09-08T01:54:31;100582.10;;;21.55;57.28
25944;BME280;13742;49.306;8.636;2023-09-08T01:55:31;100582.06;;;21.54;57.05
25944;BME280;13742;49.306;8.636;2023-09-08T01:56:31;100580.38;;;21.54;57.33
25944;BME280;13742;49.306;8.636;2023-09-08T01:57:31;100578.23;;;21.53;57.56
25944;BME280;13742;49.306;8.636;2023-09-08T01:58:33;100580.91;;;21.53;57.57
25944;BME280;13742;49.306;8.636;2023-09-08T01:59:31;100574.42;;;21.52;57.80
25944;BME280;13742;49.306;8.636;2023-09-08T02:00:31;100578.83;;;21.53;57.68
25944;BME280;13742;49.306;8.636;2023-09-08T02:01:31;100577.95;;;21.52;58.11
25944;BME280;13742;49.306;8.636;2023-09-08T02:02:31;100576.63;;;21.48;57.89
25944;BME280;13742;49.306;8.636;2023-09-08T02:03:32;100580.48;;;21.48;57.71
25944;BME280;13742;49.306;8.636;2023-09-08T02:04:32;100580.21;;;21.45;58.01
25944;BME280;13742;49.306;8.636;2023-09-08T02:05:31;100579.63;;;21.43;57.91
25944;BME280;13742;49.306;8.636;2023-09-08T02:06:31;100579.34;;;21.40;58.39
25944;BME280;13742;49.306;8.636;2023-09-08T02:07:31;100581.60;;;21.41;58.34
25944;BME280;13742;49.306;8.636;2023-09-08T02:08:31;100578.94;;;21.40;58.38
25944;BME280;13742;49.306;8.636;2023-09-08T02:09:35;100574.70;;;21.40;58.16
25944;BME280;13742;49.306;8.636;2023-09-08T02:10:32;100577.73;;;21.40;58.31
25944;BME280;13742;49.306;8.636;2023-09-08T02:11:31;100574.20;;;21.39;58.26
25944;BME280;13742;49.306;8.636;2023-09-08T02:12:31;100574.43;;;21.39;58.32
25944;BME280;13742;49.306;8.636;2023-09-08T02:13:31;100575.78;;;21.39;58.24
25944;BME280;13742;49.306;8.636;2023-09-08T02:14:31;100580.48;;;21.38;58.62
25944;BME280;13742;49.306;8.636;2023-09-08T02:15:34;100577.92;;;21.38;58.72
25944;BME280;13742;49.306;8.636;2023-09-08T02:16:31;100577.29;;;21.39;58.68
25944;BME280;13742;49.306;8.636;2023-09-08T02:17:31;100574.56;;;21.37;58.45
25944;BME280;13742;49.306;8.636;2023-09-08T02:18:31;100578.02;;;21.38;58.45
25944;BME280;13742;49.306;8.636;2023-09-08T02:19:31;100578.11;;;21.36;58.71
25944;BME280;13742;49.306;8.636;2023-09-08T02:20:31;100580.42;;;21.35;58.59
25944;BME280;13742;49.306;8.636;2023-09-08T02:21:31;100576.86;;;21.34;59.12
25944;BME280;13742;49.306;8.636;2023-09-08T02:22:31;100578.33;;;21.33;58.74
25944;BME280;13742;49.306;8.636;2023-09-08T02:23:31;100571.03;;;21.31;58.78
25944;BME280;13742;49.306;8.636;2023-09-08T02:24:31;100577.59;;;21.33;59.09
25944;BME280;13742;49.306;8.636;2023-09-08T02:25:31;100578.27;;;21.34;59.00
25944;BME280;13742;49.306;8.636;2023-09-08T02:26:33;100580.98;;;21.32;59.23
25944;BME280;13742;49.306;8.636;2023-09-08T02:27:31;100575.77;;;21.30;59.19
25944;BME280;13742;49.306;8.636;2023-09-08T02:28:31;100576.70;;;21.30;59.40
25944;BME280;13742;49.306;8.636;2023-09-08T02:29:31;100574.89;;;21.31;59.10
25944;BME280;13742;49.306;8.636;2023-09-08T02:30:31;100573.94;;;21.28;59.61
25944;BME280;13742;49.306;8.636;2023-09-08T02:31:31;100576.86;;;21.27;59.69
25944;BME280;13742;49.306;8.636;2023-09-08T02:32:31;100568.39;;;21.28;59.61
25944;BME280;13742;49.306;8.636;2023-09-08T02:33:31;100574.48;;;21.29;59.30
25944;BME280;13742;49.306;8.636;2023-09-08T02:34:33;100578.62;;;21.29;59.23
25944;BME280;13742;49.306;8.636;2023-09-08T02:35:35;100575.34;;;21.27;59.52
25944;BME280;13742;49.306;8.636;2023-09-08T02:36:31;100579.75;;;21.29;59.22
25944;BME280;13742;49.306;8.636;2023-09-08T02:37:31;100578.60;;;21.27;59.48
25944;BME280;13742;49.306;8.636;2023-09-08T02:38:32;100575.94;;;21.25;59.54
25944;BME280;13742;49.306;8.636;2023-09-08T02:39:32;100575.17;;;21.25;59.46
25944;BME280;13742;49.306;8.636;2023-09-08T02:40:34;100578.78;;;21.23;59.34
25944;BME280;13742;49.306;8.636;2023-09-08T02:41:31;100576.66;;;21.22;59.23
25944;BME280;13742;49.306;8.636;2023-09-08T02:42:31;100580.59;;;21.22;59.61
25944;BME280;13742;49.306;8.636;2023-09-08T02:43:31;100579.55;;;21.23;59.97
25944;BME280;13742;49.306;8.636;2023-09-08T02:44:31;100582.27;;;21.22;59.91
25944;BME280;13742;49.306;8.636;2023-09-08T02:45:31;100580.80;;;21.23;59.50
25944;BME280;13742;49.306;8.636;2023-09-08T02:46:31;100583.88;;;21.22;59.62
25944;BME280;13742;49.306;8.636;2023-09-08T02:47:31;100587.20;;;21.21;59.81
25944;BME280;13742;49.306;8.636;2023-09-08T02:48:31;100585.59;;;21.21;59.54
25944;BME280;13742;49.306;8.636;2023-09-08T02:49:31;100584.25;;;21.21;60.09
25944;BME280;13742;49.306;8.636;2023-09-08T02:50:31;100583.55;;;21.22;59.86
25944;BME280;13742;49.306;8.636;2023-09-08T02:51:31;100584.28;;;21.22;59.93
25944;BME280;13742;49.306;8.636;2023-09-08T02:52:31;100582.16;;;21.19;60.14
25944;BME280;13742;49.306;8.636;2023-09-08T02:53:31;100581.44;;;21.18;60.29
25944;BME280;13742;49.306;8.636;2023-09-08T02:54:31;100578.00;;;21.16;60.47
25944;BME280;13742;49.306;8.636;2023-09-08T02:55:31;100579.45;;;21.16;60.08
25944;BME280;13742;49.306;8.636;2023-09-08T02:56:31;100578.41;;;21.15;60.14
25944;BME280;13742;49.306;8.636;2023-09-08T02:57:31;100581.86;;;21.16;60.05
25944;BME280;13742;49.306;8.636;2023-09-08T02:58:33;100583.11;;;21.11;60.41
25944;BME280;13742;49.306;8.636;2023-09-08T02:59:31;100582.27;;;21.11;60.25
25944;BME280;13742;49.306;8.636;2023-09-08T03:00:31;100580.80;;;21.12;60.35
25944;BME280;13742;49.306;8.636;2023-09-08T03:01:32;100577.84;;;21.11;60.41
25944;BME280;13742;49.306;8.636;2023-09-08T03:02:31;100574.81;;;21.11;60.29
25944;BME280;13742;49.306;8.636;2023-09-08T03:03:33;100578.74;;;21.10;60.46
25944;BME280;13742;49.306;8.636;2023-09-08T03:04:31;100579.02;;;21.12;60.31
25944;BME280;13742;49.306;8.636;2023-09-08T03:05:31;100575.55;;;21.10;59.97
25944;BME280;13742;49.306;8.636;2023-09-08T03:06:31;100577.61;;;21.07;60.72
25944;BME280;13742;49.306;8.636;2023-09-08T03:07:33;100581.04;;;21.08;60.32
25944;BME280;13742;49.306;8.636;2023-09-08T03:08:31;100580.50;;;21.07;60.50
25944;BME280;13742;49.306;8.636;2023-09-08T03:09:33;100581.98;;;21.07;60.29
25944;BME280;13742;49.306;8.636;2023-09-08T03:10:34;100580.81;;;21.08;60.67
25944;BME280;13742;49.306;8.636;2023-09-08T03:11:31;100581.45;;;21.09;60.25
25944;BME280;13742;49.306;8.636;2023-09-08T03:12:31;100581.69;;;21.08;60.78
25944;BME280;13742;49.306;8.636;2023-09-08T03:13:32;100582.63;;;21.09;60.82
25944;BME280;13742;49.306;8.636;2023-09-08T03:14:31;100581.72;;;21.08;60.77
25944;BME280;13742;49.306;8.636;2023-09-08T03:15:31;100580.23;;;21.08;60.45
25944;BME280;13742;49.306;8.636;2023-09-08T03:16:31;100580.58;;;21.09;60.37
25944;BME280;13742;49.306;8.636;2023-09-08T03:17:31;100578.80;;;21.08;60.65
25944;BME280;13742;49.306;8.636;2023-09-08T03:18:32;100583.22;;;21.07;60.20
25944;BME280;13742;49.306;8.636;2023-09-08T03:19:31;100582.22;;;21.07;60.28
25944;BME280;13742;49.306;8.636;2023-09-08T03:20:31;100582.52;;;21.07;60.20
25944;BME280;13742;49.306;8.636;2023-09-08T03:21:31;100579.15;;;21.06;60.24
25944;BME280;13742;49.306;8.636;2023-09-08T03:22:31;100580.79;;;21.05;59.92
25944;BME280;13742;49.306;8.636;2023-09-08T03:23:31;100577.83;;;21.04;60.45
25944;BME280;13742;49.306;8.636;2023-09-08T03:24:31;100582.69;;;21.02;60.69
25944;BME280;13742;49.306;8.636;2023-09-08T03:25:31;100582.22;;;21.03;60.14
25944;BME280;13742;49.306;8.636;2023-09-08T03:26:31;100582.73;;;21.04;60.76
25944;BME280;13742;49.306;8.636;2023-09-08T03:27:31;100583.94;;;21.04;60.66
25944;BME280;13742;49.306;8.636;2023-09-08T03:28:31;100584.67;;;21.03;60.56
25944;BME280;13742;49.306;8.636;2023-09-08T03:29:31;100586.25;;;21.03;60.28
25944;BME280;13742;49.306;8.636;2023-09-08T03:30:31;100584.61;;;21.04;60.09
25944;BME280;13742;49.306;8.636;2023-09-08T03:31:31;100583.56;;;21.03;60.45
25944;BME280;13742;49.306;8.636;2023-09-08T03:32:31;100583.47;;;21.03;60.19
25944;BME280;13742;49.306;8.636;2023-09-08T03:33:31;100582.13;;;21.03;60.35
25944;BME280;13742;49.306;8.636;2023-09-08T03:34:31;100586.15;;;21.03;60.49
25944;BME280;13742;49.306;8.636;2023-09-08T03:35:31;100585.31;;;21.03;60.29
25944;BME280;13742;49.306;8.636;2023-09-08T03:36:35;100585.41;;;21.03;60.79
25944;BME280;13742;49.306;8.636;2023-09-08T03:37:31;100589.38;;;21.03;60.69
25944;BME280;13742;49.306;8.636;2023-09-08T03:38:31;100584.94;;;21.02;60.54
25944;BME280;13742;49.306;8.636;2023-09-08T03:39:31;100588.92;;;21.01;60.56
25944;BME280;13742;49.306;8.636;2023-09-08T03:40:31;100589.66;;;21.00;60.43
25944;BME280;13742;49.306;8.636;2023-09-08T03:41:31;100591.23;;;21.00;60.42
25944;BME280;13742;49.306;8.636;2023-09-08T03:42:31;100588.72;;;21.00;60.74
25944;BME280;13742;49.306;8.636;2023-09-08T03:43:31;100590.37;;;21.01;60.57
25944;BME280;13742;49.306;8.636;2023-09-08T03:44:31;100588.02;;;21.01;61.14
25944;BME280;13742;49.306;8.636;2023-09-08T03:45:31;100590.94;;;21.00;60.63
25944;BME280;13742;49.306;8.636;2023-09-08T03:46:31;100589.92;;;21.00;60.74
25944;BME280;13742;49.306;8.636;2023-09-08T03:47:31;100585.02;;;20.99;60.72
25944;BME280;13742;49.306;8.636;2023-09-08T03:48:31;100584.58;;;20.99;60.44
25944;BME280;13742;49.306;8.636;2023-09-08T03:49:31;100584.75;;;20.99;61.16
25944;BME280;13742;49.306;8.636;2023-09-08T03:50:31;100583.59;;;20.98;60.74
25944;BME280;13742;49.306;8.636;2023-09-08T03:51:31;100584.61;;;20.98;60.91
25944;BME280;13742;49.306;8.636;2023-09-08T03:52:31;100579.90;;;20.97;61.14
25944;BME280;13742;49.306;8.636;2023-09-08T03:53:31;100584.23;;;20.97;61.02
25944;BME280;13742;49.306;8.636;2023-09-08T03:54:32;100586.50;;;20.95;60.75
25944;BME280;13742;49.306;8.636;2023-09-08T03:55:31;100585.55;;;20.94;60.71
25944;BME280;13742;49.306;8.636;2023-09-08T03:56:31;100586.92;;;20.93;60.67
25944;BME280;13742;49.306;8.636;2023-09-08T03:57:31;100584.92;;;20.91;60.98
25944;BME280;13742;49.306;8.636;2023-09-08T03:58:31;100587.00;;;20.91;60.88
25944;BME280;13742;49.306;8.636;2023-09-08T03:59:31;100589.65;;;20.90;60.71
25944;BME280;13742;49.306;8.636;2023-09-08T04:00:31;100589.98;;;20.89;60.88
25944;BME280;13742;49.306;8.636;2023-09-08T04:01:31;100588.05;;;20.88;61.09
25944;BME280;13742;49.306;8.636;2023-09-08T04:02:31;100591.80;;;20.89;61.52
25944;BME280;13742;49.306;8.636;2023-09-08T04:03:31;100592.38;;;20.87;61.52
25944;BME280;13742;49.306;8.636;2023-09-08T04:04:31;100594.86;;;20.86;61.49
25944;BME280;13742;49.306;8.636;2023-09-08T04:05:31;100591.96;;;20.85;61.15
25944;BME280;13742;49.306;8.636;2023-09-08T04:06:31;100592.73;;;20.84;61.24
25944;BME280;13742;49.306;8.636;2023-09-08T04:07:31;100593.08;;;20.85;61.11
25944;BME280;13742;49.306;8.636;2023-09-08T04:08:31;100592.91;;;20.85;61.72
25944;BME280;13742;49.306;8.636;2023-09-08T04:09:31;100594.31;;;20.85;61.78
25944;BME280;13742;49.306;8.636;2023-09-08T04:10:31;100597.16;;;20.84;61.81
25944;BME280;13742;49.306;8.636;2023-09-08T04:11:31;100597.31;;;20.82;62.34
25944;BME280;13742;49.306;8.636;2023-09-08T04:12:31;100600.73;;;20.76;62.33
25944;BME280;13742;49.306;8.636;2023-09-08T04:13:31;100597.53;;;20.71;62.08
25944;BME280;13742;49.306;8.636;2023-09-08T04:14:33;100600.23;;;20.62;63.10
25944;BME280;13742;49.306;8.636;2023-09-08T04:15:32;100598.33;;;20.58;62.83
25944;BME280;13742;49.306;8.636;2023-09-08T04:16:31;100599.86;;;20.57;63.07
25944;BME280;13742;49.306;8.636;2023-09-08T04:17:31;100603.25;;;20.53;63.21
25944;BME280;13742;49.306;8.636;2023-09-08T04:18:31;100606.08;;;20.50;63.33
25944;BME280;13742;49.306;8.636;2023-09-08T04:19:31;100608.72;;;20.49;63.16
25944;BME280;13742;49.306;8.636;2023-09-08T04:20:31;100606.79;;;20.47;62.85
25944;BME280;13742;49.306;8.636;2023-09-08T04:21:31;100607.47;;;20.44;63.56
25944;BME280;13742;49.306;8.636;2023-09-08T04:22:32;100609.28;;;20.41;63.62
25944;BME280;13742;49.306;8.636;2023-09-08T04:23:31;100607.16;;;20.36;63.49
25944;BME280;13742;49.306;8.636;2023-09-08T04:24:34;100607.17;;;20.35;63.14
25944;BME280;13742;49.306;8.636;2023-09-08T04:25:31;100608.20;;;20.33;63.21
25944;BME280;13742;49.306;8.636;2023-09-08T04:26:31;100607.00;;;20.31;63.79
25944;BME280;13742;49.306;8.636;2023-09-08T04:27:32;100609.64;;;20.29;64.10
25944;BME280;13742;49.306;8.636;2023-09-08T04:28:31;100608.45;;;20.26;64.16
25944;BME280;13742;49.306;8.636;2023-09-08T04:29:32;100606.02;;;20.23;63.80
25944;BME280;13742;49.306;8.636;2023-09-08T04:30:31;100611.27;;;20.21;63.53
25944;BME280;13742;49.306;8.636;2023-09-08T04:31:31;100608.79;;;20.16;64.59
25944;BME280;13742;49.306;8.636;2023-09-08T04:32:31;100609.33;;;20.13;64.71
25944;BME280;13742;49.306;8.636;2023-09-08T04:33:31;100611.51;;;20.13;64.32
25944;BME280;13742;49.306;8.636;2023-09-08T04:34:31;100607.13;;;20.10;64.25
25944;BME280;13742;49.306;8.636;2023-09-08T04:35:31;100606.73;;;20.05;64.46
25944;BME280;13742;49.306;8.636;2023-09-08T04:36:31;100613.10;;;19.99;64.07
25944;BME280;13742;49.306;8.636;2023-09-08T04:37:31;100613.98;;;19.97;64.66
25944;BME280;13742;49.306;8.636;2023-09-08T04:38:31;100617.71;;;19.95;64.17
25944;BME280;13742;49.306;8.636;2023-09-08T04:39:32;100618.39;;;19.93;63.83
25944;BME280;13742;49.306;8.636;2023-09-08T04:40:31;100616.38;;;19.81;65.59
25944;BME280;13742;49.306;8.636;2023-09-08T04:41:31;100618.41;;;19.80;65.13
25944;BME280;13742;49.306;8.636;2023-09-08T04:42:31;100618.92;;;19.80;64.58
25944;BME280;13742;49.306;8.636;2023-09-08T04:43:31;100617.01;;;19.80;64.59
25944;BME280;13742;49.306;8.636;2023-09-08T04:44:31;100617.22;;;19.81;64.79
25944;BME280;13742;49.306;8.636;2023-09-08T04:45:31;100620.25;;;19.80;64.52
25944;BME280;13742;49.306;8.636;2023-09-08T04:46:31;100620.22;;;19.77;64.75
25944;BME280;13742;49.306;8.636;2023-09-08T04:47:31;100617.21;;;19.75;64.82
25944;BME280;13742;49.306;8.636;2023-09-08T04:48:31;100616.89;;;19.74;64.62
25944;BME280;13742;49.306;8.636;2023-09-08T04:49:31;100618.91;;;19.74;64.02
25944;BME280;13742;49.306;8.636;2023-09-08T04:50:31;100620.69;;;19.75;64.57
25944;BME280;13742;49.306;8.636;2023-09-08T04:51:31;100618.45;;;19.75;64.60
25944;BME280;13742;49.306;8.636;2023-09-08T04:52:31;100622.81;;;19.75;64.84
25944;BME280;13742;49.306;8.636;2023-09-08T04:53:33;100619.68;;;19.74;64.86
25944;BME280;13742;49.306;8.636;2023-09-08T04:54:31;100622.25;;;19.76;64.64
25944;BME280;13742;49.306;8.636;2023-09-08T04:55:31;100621.50;;;19.72;66.10
25944;BME280;13742;49.306;8.636;2023-09-08T04:56:31;100622.72;;;19.68;66.37
25944;BME280;13742;49.306;8.636;2023-09-08T04:57:31;100624.21;;;19.70;66.31
25944;BME280;13742;49.306;8.636;2023-09-08T04:58:31;100625.80;;;19.68;66.32
25944;BME280;13742;49.306;8.636;2023-09-08T04:59:32;100626.25;;;19.66;66.16
25944;BME280;13742;49.306;8.636;2023-09-08T05:00:33;100630.20;;;19.59;66.38
25944;BME280;13742;49.306;8.636;2023-09-08T05:01:32;100629.20;;;19.47;67.09
25944;BME280;13742;49.306;8.636;2023-09-08T05:02:31;100628.58;;;19.40;67.07
25944;BME280;13742;49.306;8.636;2023-09-08T05:03:31;100628.80;;;19.41;66.69
25944;BME280;13742;49.306;8.636;2023-09-08T05:04:31;100629.73;;;19.41;65.64
25944;BME280;13742;49.306;8.636;2023-09-08T05:05:31;100631.67;;;19.43;66.26
25944;BME280;13742;49.306;8.636;2023-09-08T05:06:31;100634.13;;;19.44;66.19
25944;BME280;13742;49.306;8.636;2023-09-08T05:07:31;100633.26;;;19.42;66.08
25944;BME280;13742;49.306;8.636;2023-09-08T05:08:31;100637.72;;;19.42;67.18
25944;BME280;13742;49.306;8.636;2023-09-08T05:09:33;100639.25;;;19.39;66.12
25944;BME280;13742;49.306;8.636;2023-09-08T05:10:31;100638.53;;;19.38;66.67
25944;BME280;13742;49.306;8.636;2023-09-08T05:11:31;100641.55;;;19.36;66.40
25944;BME280;13742;49.306;8.636;2023-09-08T05:12:31;100643.30;;;19.37;66.89
25944;BME280;13742;49.306;8.636;2023-09-08T05:13:31;100639.11;;;19.36;66.74
25944;BME280;13742;49.306;8.636;2023-09-08T05:14:31;100645.13;;;19.36;66.95
25944;BME280;13742;49.306;8.636;2023-09-08T05:15:31;100643.75;;;19.35;66.99
25944;BME280;13742;49.306;8.636;2023-09-08T05:16:36;100640.85;;;19.34;67.58
25944;BME280;13742;49.306;8.636;2023-09-08T05:17:31;100642.48;;;19.31;67.26